Main page
METAR-TAF:

METAR-TAF

Airports :

Sogndal Airport. Haukåsen

Sogndal, Norway

latitude: 61-09N, longitude: 007-08E, elevation: 49 m

Current weather observation

The report was made 1 hour and 12 minutes ago, at 20:50 UTC
Wind 6 kt from the West/Southwest
Temperature 0°C
Humidity 100%
Pressure 981 hPa
Visibility: 6000 m
light rain showers

METAR: ENSG 172050Z 24006KT 6000 -SHRA VV013 00/00 Q0981 RMK WIND 3806FT 26034KT

Time: 23:02 (22:02 UTC)


TAF: missing

Weather observations and forecasts of more than 4000 airports (METAR and TAF reports).

The available stations are represented by yellow and red dots on the map.

Hover mouse over dot to see the name of the station.

Then click to see weather observations and forecasts.

To change the map : click on the green buttons with a black cross to zoom in, on the green button with a dash to zoom out, or on the green arrows for adjacent maps.


METAR-TAF: